Time;durP1;ratioP1;P1;durP2;ratioP2;P2;SDS_P1;SDS_P2;PMS_P1;PMS_P2;Temp;Humidity;BMP_temperature;BMP_pressure;BME280_temperature;BME280_humidity;BME280_pressure;Samples;Min_cycle;Max_cycle;Signal;HPM_P1;HPM_P2
2023/06/12 00:01:49;;;;;;;6.80;2.55;;;;;;;;;;4995477;28;20049;-64
2023/06/12 00:04:16;;;;;;;5.28;2.05;;;;;;;;;;4996021;28;20029;-64
2023/06/12 00:06:42;;;;;;;6.43;3.15;;;;;;;;;;4996551;28;20040;-64
2023/06/12 00:09:09;;;;;;;5.97;2.50;;;;;;;;;;4996950;28;20038;-64
2023/06/12 00:11:35;;;;;;;9.90;2.33;;;;;;;;;;4996689;28;20551;-63
2023/06/12 00:14:01;;;;;;;4.88;2.30;;;;;;;;;;5000557;28;20084;-63
2023/06/12 00:16:28;;;;;;;5.97;2.03;;;;;;;;;;4996889;28;20120;-64
2023/06/12 00:18:55;;;;;;;4.53;2.28;;;;;;;;;;4995580;28;20048;-63
2023/06/12 00:21:22;;;;;;;6.60;2.42;;;;;;;;;;4995882;28;20720;-63
2023/06/12 00:23:49;;;;;;;7.38;2.58;;;;;;;;;;4995979;28;20030;-63
2023/06/12 00:26:15;;;;;;;4.38;2.10;;;;;;;;;;4996799;28;20057;-63
2023/06/12 00:28:41;;;;;;;7.20;2.22;;;;;;;;;;4996417;28;20033;-63
2023/06/12 00:31:07;;;;;;;4.85;2.20;;;;;;;;;;4996886;28;20148;-63
2023/06/12 00:33:33;;;;;;;5.60;2.35;;;;;;;;;;4996377;28;20060;-63
2023/06/12 00:35:59;;;;;;;6.90;2.55;;;;;;;;;;4996369;28;20056;-64
2023/06/12 00:38:25;;;;;;;7.03;2.20;;;;;;;;;;4995672;28;20052;-63
2023/06/12 00:40:51;;;;;;;5.43;2.30;;;;;;;;;;4996064;28;20042;-64
2023/06/12 00:43:18;;;;;;;7.60;2.20;;;;;;;;;;4996455;28;20140;-63
2023/06/12 00:45:44;;;;;;;6.25;1.90;;;;;;;;;;4994911;28;20022;-63
2023/06/12 00:48:10;;;;;;;6.30;2.30;;;;;;;;;;4995386;28;20026;-63
2023/06/12 00:50:39;;;;;;;6.65;2.30;;;;;;;;;;4997110;28;20041;-63
2023/06/12 00:53:05;;;;;;;4.90;1.95;;;;;;;;;;5000822;28;20949;-63
2023/06/12 00:55:32;;;;;;;6.03;2.58;;;;;;;;;;5000296;28;20036;-63
2023/06/12 00:57:58;;;;;;;8.27;2.10;;;;;;;;;;4999403;28;20038;-64
2023/06/12 01:00:25;;;;;;;8.95;2.20;;;;;;;;;;4997653;28;20107;-63
2023/06/12 01:02:52;;;;;;;6.70;2.35;;;;;;;;;;4997446;28;20037;-63
2023/06/12 01:05:28;;;;;;;4.78;2.05;;;;;;;;;;4998277;28;20113;-63
2023/06/12 01:08:04;;;;;;;5.38;2.60;;;;;;;;;;4996689;28;20026;-63
2023/06/12 01:10:41;;;;;;;6.30;2.25;;;;;;;;;;4997945;28;20033;-63
2023/06/12 01:13:09;;;;;;;8.13;2.80;;;;;;;;;;4998700;28;20386;-63
2023/06/12 01:15:36;;;;;;;7.28;2.35;;;;;;;;;;4999240;28;20026;-63
2023/06/12 01:18:03;;;;;;;6.03;2.58;;;;;;;;;;5000445;28;21864;-63
2023/06/12 01:20:29;;;;;;;6.30;2.78;;;;;;;;;;5000112;28;20033;-63
2023/06/12 01:23:02;;;;;;;6.38;2.33;;;;;;;;;;4999840;28;20121;-63
2023/06/12 01:25:47;;;;;;;5.88;2.50;;;;;;;;;;5000461;28;20034;-63
2023/06/12 01:28:25;;;;;;;5.57;2.45;;;;;;;;;;5000371;28;20033;-64
2023/06/12 01:30:57;;;;;;;7.03;2.28;;;;;;;;;;4999973;28;20034;-64
2023/06/12 01:33:30;;;;;;;4.50;2.03;;;;;;;;;;5000339;28;20041;-63
2023/06/12 01:35:57;;;;;;;8.90;2.20;;;;;;;;;;4999829;28;20025;-63
2023/06/12 01:38:23;;;;;;;6.30;2.53;;;;;;;;;;5000319;28;20468;-63
2023/06/12 01:40:50;;;;;;;6.00;2.35;;;;;;;;;;4999653;28;20048;-63
2023/06/12 01:43:17;;;;;;;5.43;2.22;;;;;;;;;;4997846;28;21014;-63
2023/06/12 01:45:43;;;;;;;9.55;2.50;;;;;;;;;;4998813;28;20112;-63
2023/06/12 01:48:09;;;;;;;7.35;2.45;;;;;;;;;;4997982;28;20060;-64
2023/06/12 01:50:35;;;;;;;7.55;2.38;;;;;;;;;;4998750;28;20030;-63
2023/06/12 01:53:02;;;;;;;10.90;3.40;;;;;;;;;;4998657;28;20041;-63
2023/06/12 01:55:29;;;;;;;6.75;2.38;;;;;;;;;;4998185;28;20045;-63
2023/06/12 01:57:55;;;;;;;5.15;2.20;;;;;;;;;;4997395;28;20127;-63
2023/06/12 02:00:21;;;;;;;8.05;2.72;;;;;;;;;;4997469;28;20038;-64
2023/06/12 02:02:49;;;;;;;4.68;2.00;;;;;;;;;;4995132;28;20116;-63
2023/06/12 02:05:16;;;;;;;6.72;2.50;;;;;;;;;;4993024;28;20111;-63
2023/06/12 02:07:42;;;;;;;5.57;2.45;;;;;;;;;;4997649;28;20037;-63
2023/06/12 02:10:08;;;;;;;6.53;2.70;;;;;;;;;;4997198;28;20540;-63
2023/06/12 02:12:34;;;;;;;5.80;2.35;;;;;;;;;;4996557;28;20405;-63
2023/06/12 02:15:01;;;;;;;8.73;3.05;;;;;;;;;;4997830;28;20077;-64
2023/06/12 02:17:28;;;;;;;6.93;2.08;;;;;;;;;;4997081;28;20029;-63
2023/06/12 02:19:54;;;;;;;5.25;2.42;;;;;;;;;;4998226;28;20116;-63
2023/06/12 02:22:20;;;;;;;6.35;2.60;;;;;;;;;;4997227;28;20029;-63
2023/06/12 02:24:47;;;;;;;9.35;2.60;;;;;;;;;;4998415;28;20477;-63
2023/06/12 02:27:13;;;;;;;8.80;3.00;;;;;;;;;;4995634;28;20033;-64
2023/06/12 02:29:39;;;;;;;8.68;2.20;;;;;;;;;;4998017;28;20076;-63
2023/06/12 02:32:05;;;;;;;11.77;3.05;;;;;;;;;;4997603;28;20026;-63
2023/06/12 02:34:31;;;;;;;6.38;2.53;;;;;;;;;;4997080;28;20040;-63
2023/06/12 02:36:58;;;;;;;5.75;2.50;;;;;;;;;;4998436;28;20026;-64
2023/06/12 02:39:24;;;;;;;8.95;3.03;;;;;;;;;;4997911;28;20038;-63
2023/06/12 02:41:50;;;;;;;8.18;2.90;;;;;;;;;;4996445;28;20065;-64
2023/06/12 02:44:16;;;;;;;9.65;2.85;;;;;;;;;;4996955;28;20661;-63
2023/06/12 02:46:58;;;;;;;5.15;2.78;;;;;;;;;;4997319;28;20029;-63
2023/06/12 02:49:26;;;;;;;7.75;2.65;;;;;;;;;;4997972;28;20069;-64
2023/06/12 02:51:52;;;;;;;6.72;2.55;;;;;;;;;;4998825;28;20025;-63
2023/06/12 02:54:19;;;;;;;7.93;2.65;;;;;;;;;;4998972;28;20038;-63
2023/06/12 02:56:45;;;;;;;7.15;2.65;;;;;;;;;;4997939;28;20112;-64
2023/06/12 02:59:18;;;;;;;4.60;2.13;;;;;;;;;;4998132;28;20068;-64
2023/06/12 03:01:44;;;;;;;;;;;;;;;;;;4997917;28;20033;-64
2023/06/12 03:04:20;;;;;;;7.18;2.63;;;;;;;;;;4994422;28;20404;-63
2023/06/12 03:06:52;;;;;;;7.47;2.75;;;;;;;;;;4997984;28;20025;-63
2023/06/12 03:09:18;;;;;;;9.48;2.75;;;;;;;;;;4996063;28;21723;-64
2023/06/12 03:11:44;;;;;;;10.20;3.17;;;;;;;;;;4995669;28;20763;-64
2023/06/12 03:14:12;;;;;;;4.75;2.15;;;;;;;;;;4992171;28;20049;-64
2023/06/12 03:16:39;;;;;;;10.13;2.97;;;;;;;;;;4995786;28;20045;-63
2023/06/12 03:19:07;;;;;;;10.13;3.20;;;;;;;;;;4996542;28;20596;-63
2023/06/12 03:21:33;;;;;;;19.23;2.58;;;;;;;;;;4997364;28;20042;-63
2023/06/12 03:23:59;;;;;;;5.70;2.55;;;;;;;;;;4998538;28;20033;-63
2023/06/12 03:26:27;;;;;;;8.50;2.78;;;;;;;;;;4997431;28;20037;-63
2023/06/12 03:28:54;;;;;;;7.38;2.63;;;;;;;;;;4996454;28;21458;-64
2023/06/12 03:31:24;;;;;;;6.15;2.38;;;;;;;;;;4997777;28;20017;-63
2023/06/12 03:33:51;;;;;;;7.20;2.70;;;;;;;;;;4998024;28;20065;-63
2023/06/12 03:36:17;;;;;;;13.63;3.25;;;;;;;;;;4996910;28;20048;-63
2023/06/12 03:38:43;;;;;;;6.60;2.50;;;;;;;;;;4996909;28;20037;-63
2023/06/12 03:41:09;;;;;;;4.63;2.60;;;;;;;;;;4996886;28;20116;-63
2023/06/12 03:43:35;;;;;;;9.65;3.70;;;;;;;;;;4997201;28;20037;-63
2023/06/12 03:46:01;;;;;;;8.32;2.90;;;;;;;;;;4996627;28;20485;-63
2023/06/12 03:48:27;;;;;;;7.85;2.85;;;;;;;;;;4996378;28;20030;-63
2023/06/12 03:50:53;;;;;;;8.70;2.72;;;;;;;;;;4997016;28;20017;-63
2023/06/12 03:53:19;;;;;;;7.57;3.08;;;;;;;;;;4997211;28;20120;-63
2023/06/12 03:55:46;;;;;;;10.35;2.97;;;;;;;;;;4997222;28;20052;-63
2023/06/12 03:58:16;;;;;;;8.38;2.88;;;;;;;;;;4997109;28;20041;-63
2023/06/12 04:00:47;;;;;;;6.82;2.88;;;;;;;;;;4997316;28;20528;-63
2023/06/12 04:03:17;;;;;;;5.43;2.38;;;;;;;;;;4996788;28;20052;-63
2023/06/12 04:05:43;;;;;;;5.95;2.70;;;;;;;;;;4996114;28;20468;-63
2023/06/12 04:08:10;;;;;;;6.55;2.70;;;;;;;;;;4996092;28;20030;-63
2023/06/12 04:10:36;;;;;;;7.45;2.90;;;;;;;;;;4996836;28;20112;-63
2023/06/12 04:13:02;;;;;;;5.72;2.45;;;;;;;;;;4996937;28;20038;-63
2023/06/12 04:15:28;;;;;;;6.28;3.10;;;;;;;;;;4997185;28;21249;-64
2023/06/12 04:17:57;;;;;;;8.52;3.00;;;;;;;;;;4993346;28;20064;-64
2023/06/12 04:20:23;;;;;;;11.38;3.28;;;;;;;;;;4997108;28;20173;-63
2023/06/12 04:22:50;;;;;;;7.28;2.75;;;;;;;;;;4996922;28;20140;-64
2023/06/12 04:25:16;;;;;;;10.50;3.10;;;;;;;;;;4997419;28;20045;-63
2023/06/12 04:27:42;;;;;;;6.85;2.80;;;;;;;;;;5000188;28;20390;-63
2023/06/12 04:30:09;;;;;;;9.52;3.22;;;;;;;;;;5000228;28;20040;-63
2023/06/12 04:32:35;;;;;;;10.85;3.42;;;;;;;;;;5001289;28;21069;-63
2023/06/12 04:35:03;;;;;;;7.13;2.78;;;;;;;;;;5000334;28;20064;-64
2023/06/12 04:37:29;;;;;;;8.27;2.90;;;;;;;;;;4999397;28;21739;-63
2023/06/12 04:39:55;;;;;;;8.10;3.28;;;;;;;;;;4998227;28;20584;-64
2023/06/12 04:42:23;;;;;;;10.70;3.17;;;;;;;;;;5000250;28;20226;-64
2023/06/12 04:44:49;;;;;;;10.25;2.70;;;;;;;;;;5000760;28;20034;-64
2023/06/12 04:47:16;;;;;;;8.23;3.15;;;;;;;;;;5000168;28;20053;-64
2023/06/12 04:49:45;;;;;;;8.45;3.00;;;;;;;;;;4999308;28;20116;-63
2023/06/12 04:52:12;;;;;;;8.93;3.25;;;;;;;;;;5001253;28;20060;-64
2023/06/12 04:54:44;;;;;;;6.78;2.47;;;;;;;;;;5000970;28;20030;-64
2023/06/12 04:57:12;;;;;;;11.00;3.00;;;;;;;;;;5000470;28;20038;-64
2023/06/12 04:59:39;;;;;;;6.20;2.88;;;;;;;;;;5001261;28;20822;-64
2023/06/12 05:02:06;;;;;;;7.38;3.03;;;;;;;;;;4999054;28;20776;-63
2023/06/12 05:04:32;;;;;;;7.28;3.53;;;;;;;;;;4998424;28;20091;-64
2023/06/12 05:07:02;;;;;;;10.68;3.65;;;;;;;;;;4996298;28;20025;-64
2023/06/12 05:09:28;;;;;;;9.18;3.78;;;;;;;;;;4999057;28;20053;-64
2023/06/12 05:11:54;;;;;;;7.03;3.00;;;;;;;;;;4998173;28;20029;-64
2023/06/12 05:14:20;;;;;;;7.00;3.35;;;;;;;;;;4996032;28;20046;-64
2023/06/12 05:16:48;;;;;;;10.73;3.22;;;;;;;;;;4998955;28;20052;-64
2023/06/12 05:19:14;;;;;;;8.50;2.78;;;;;;;;;;4997318;28;21464;-64
2023/06/12 05:21:43;;;;;;;9.45;3.28;;;;;;;;;;4997200;28;20033;-64
2023/06/12 05:24:09;;;;;;;12.07;4.20;;;;;;;;;;4997026;28;20083;-65
2023/06/12 05:26:35;;;;;;;7.82;3.08;;;;;;;;;;4997886;28;20025;-64
2023/06/12 05:29:02;;;;;;;7.93;3.38;;;;;;;;;;4997099;28;20105;-64
2023/06/12 05:31:28;;;;;;;9.27;3.30;;;;;;;;;;4998092;28;20041;-63
2023/06/12 05:33:55;;;;;;;10.45;3.22;;;;;;;;;;4997241;28;20035;-64
2023/06/12 05:36:21;;;;;;;37.47;6.20;;;;;;;;;;4995199;28;20041;-64
2023/06/12 05:38:47;;;;;;;11.77;4.13;;;;;;;;;;4997307;28;20029;-64
2023/06/12 05:41:15;;;;;;;6.88;3.13;;;;;;;;;;4998081;28;20092;-64
2023/06/12 05:43:44;;;;;;;10.73;3.63;;;;;;;;;;4998288;28;20034;-64
2023/06/12 05:46:10;;;;;;;9.40;3.22;;;;;;;;;;4997284;28;20068;-63
2023/06/12 05:48:36;;;;;;;9.75;3.75;;;;;;;;;;4999371;28;20136;-64
2023/06/12 05:51:03;;;;;;;7.43;3.35;;;;;;;;;;4999284;28;20472;-64
2023/06/12 05:53:29;;;;;;;8.38;3.80;;;;;;;;;;4999268;28;20030;-64
2023/06/12 05:55:55;;;;;;;12.52;3.17;;;;;;;;;;4998560;28;20042;-64
2023/06/12 05:58:22;;;;;;;8.02;3.33;;;;;;;;;;4999187;28;20092;-63
2023/06/12 06:00:49;;;;;;;6.90;2.97;;;;;;;;;;4999378;28;20041;-64
2023/06/12 06:03:18;;;;;;;10.50;3.20;;;;;;;;;;4994475;28;20053;-64
2023/06/12 06:05:44;;;;;;;9.18;3.42;;;;;;;;;;4999141;28;20068;-64
2023/06/12 06:08:10;;;;;;;10.30;4.28;;;;;;;;;;4999412;28;20025;-64
2023/06/12 06:10:37;;;;;;;9.07;3.35;;;;;;;;;;4998885;28;20041;-64
2023/06/12 06:13:03;;;;;;;8.77;3.55;;;;;;;;;;4999023;28;20076;-64
2023/06/12 06:15:29;;;;;;;8.90;3.83;;;;;;;;;;4999151;28;20041;-64
2023/06/12 06:17:55;;;;;;;6.70;3.30;;;;;;;;;;4998804;28;20026;-64
2023/06/12 06:20:21;;;;;;;7.00;3.90;;;;;;;;;;4997969;28;20041;-64
2023/06/12 06:22:47;;;;;;;9.60;3.28;;;;;;;;;;4998530;28;20033;-64
2023/06/12 06:25:15;;;;;;;9.45;3.90;;;;;;;;;;4997136;28;20662;-64
2023/06/12 06:27:41;;;;;;;8.05;3.33;;;;;;;;;;4997562;28;20044;-64
2023/06/12 06:30:07;;;;;;;9.50;3.35;;;;;;;;;;4998454;28;20551;-64
2023/06/12 06:32:33;;;;;;;12.13;3.63;;;;;;;;;;4997905;28;20037;-64
2023/06/12 06:35:00;;;;;;;7.45;3.30;;;;;;;;;;4996929;28;20042;-64
2023/06/12 06:37:26;;;;;;;8.80;3.08;;;;;;;;;;4997326;28;20040;-64
2023/06/12 06:39:52;;;;;;;9.25;3.80;;;;;;;;;;4997543;28;20036;-64
2023/06/12 06:42:18;;;;;;;24.70;4.18;;;;;;;;;;4997751;28;20044;-64
2023/06/12 06:44:44;;;;;;;8.02;3.78;;;;;;;;;;4996501;28;20034;-64
2023/06/12 06:47:11;;;;;;;10.13;4.28;;;;;;;;;;4998740;28;20034;-64
2023/06/12 06:49:38;;;;;;;7.47;4.07;;;;;;;;;;4997371;28;20034;-64
2023/06/12 06:52:04;;;;;;;8.15;4.30;;;;;;;;;;4998617;28;20148;-64
2023/06/12 06:54:30;;;;;;;16.60;3.90;;;;;;;;;;4995959;28;20074;-64
2023/06/12 06:56:57;;;;;;;9.80;3.72;;;;;;;;;;4997010;28;20033;-63
2023/06/12 06:59:23;;;;;;;7.00;3.28;;;;;;;;;;4997112;28;20078;-63
2023/06/12 07:01:49;;;;;;;9.60;3.47;;;;;;;;;;4997405;28;20152;-63
2023/06/12 07:04:15;;;;;;;9.77;3.80;;;;;;;;;;4997130;28;20071;-63
2023/06/12 07:06:41;;;;;;;10.02;4.13;;;;;;;;;;4997897;28;20080;-62
2023/06/12 07:09:08;;;;;;;9.77;4.20;;;;;;;;;;4996980;28;20025;-62
2023/06/12 07:11:34;;;;;;;10.18;4.25;;;;;;;;;;4989743;28;20175;-63
2023/06/12 07:14:00;;;;;;;9.85;4.30;;;;;;;;;;4986927;28;20571;-63
2023/06/12 07:16:27;;;;;;;8.15;3.50;;;;;;;;;;4987461;28;20065;-63
2023/06/12 07:18:53;;;;;;;10.02;3.92;;;;;;;;;;4988980;28;20125;-63
2023/06/12 07:21:19;;;;;;;7.38;3.22;;;;;;;;;;4989620;28;20155;-63
2023/06/12 07:23:45;;;;;;;9.00;3.60;;;;;;;;;;5002900;28;20038;-63
2023/06/12 07:26:11;;;;;;;12.68;3.53;;;;;;;;;;4989098;28;20034;-63
2023/06/12 07:28:38;;;;;;;14.32;3.92;;;;;;;;;;4988494;28;20033;-63
2023/06/12 07:31:04;;;;;;;7.32;3.53;;;;;;;;;;4987135;28;20031;-62
2023/06/12 07:33:30;;;;;;;8.02;3.95;;;;;;;;;;4983987;28;20045;-62
2023/06/12 07:35:56;;;;;;;8.88;3.83;;;;;;;;;;4987063;28;20316;-63
2023/06/12 07:38:22;;;;;;;8.38;3.90;;;;;;;;;;4986988;28;20037;-63
2023/06/12 07:40:48;;;;;;;9.63;4.22;;;;;;;;;;4987018;28;20076;-63
2023/06/12 07:43:14;;;;;;;12.52;4.45;;;;;;;;;;4986014;28;20065;-63
2023/06/12 07:45:41;;;;;;;9.85;4.50;;;;;;;;;;4981871;28;20044;-63
2023/06/12 07:48:07;;;;;;;8.48;4.28;;;;;;;;;;4987226;28;20037;-63
2023/06/12 07:50:34;;;;;;;13.35;4.70;;;;;;;;;;4983953;28;20083;-63
2023/06/12 07:53:00;;;;;;;7.28;4.28;;;;;;;;;;4986427;28;20048;-62
2023/06/12 07:55:30;;;;;;;8.38;4.13;;;;;;;;;;4987570;28;20036;-62
2023/06/12 07:57:56;;;;;;;8.73;4.80;;;;;;;;;;4986196;28;20033;-63
2023/06/12 08:00:22;;;;;;;8.18;4.00;;;;;;;;;;4985628;28;21794;-63
2023/06/12 08:02:58;;;;;;;11.27;4.20;;;;;;;;;;4986634;28;20034;-62
2023/06/12 08:05:27;;;;;;;10.20;3.92;;;;;;;;;;4984622;28;20030;-62
2023/06/12 08:07:53;;;;;;;7.45;3.75;;;;;;;;;;4986748;28;20507;-62
2023/06/12 08:10:20;;;;;;;9.82;3.92;;;;;;;;;;4985025;28;20025;-62
2023/06/12 08:12:46;;;;;;;9.27;3.88;;;;;;;;;;4985762;28;20022;-62
2023/06/12 08:15:13;;;;;;;9.60;4.10;;;;;;;;;;4981591;28;22011;-62
2023/06/12 08:17:41;;;;;;;7.38;3.30;;;;;;;;;;4986107;28;20061;-62
2023/06/12 08:20:09;;;;;;;8.88;4.03;;;;;;;;;;4986906;28;20041;-63
2023/06/12 08:22:35;;;;;;;11.50;4.18;;;;;;;;;;4987317;28;20091;-63
2023/06/12 08:25:03;;;;;;;10.15;4.20;;;;;;;;;;4985174;28;20600;-63
2023/06/12 08:27:29;;;;;;;8.73;3.95;;;;;;;;;;4980191;28;20117;-63
2023/06/12 08:29:55;;;;;;;9.73;4.40;;;;;;;;;;4985485;28;20100;-63
2023/06/12 08:32:22;;;;;;;7.65;3.85;;;;;;;;;;4987366;28;20030;-63
2023/06/12 08:34:48;;;;;;;7.40;3.65;;;;;;;;;;4988073;28;20580;-63
2023/06/12 08:37:14;;;;;;;9.75;4.65;;;;;;;;;;4988446;28;20045;-63
2023/06/12 08:39:40;;;;;;;7.80;3.72;;;;;;;;;;4988064;28;20033;-63
2023/06/12 08:42:11;;;;;;;9.43;3.60;;;;;;;;;;4986804;28;20030;-62
2023/06/12 08:44:38;;;;;;;10.07;4.10;;;;;;;;;;4987716;28;20503;-63
2023/06/12 08:47:05;;;;;;;7.10;3.65;;;;;;;;;;4989948;28;20030;-63
2023/06/12 08:49:31;;;;;;;8.88;3.53;;;;;;;;;;4987299;28;20021;-63
2023/06/12 08:51:57;;;;;;;9.63;3.92;;;;;;;;;;4987806;28;20033;-63
2023/06/12 08:54:23;;;;;;;7.72;3.15;;;;;;;;;;4989395;28;20038;-63
2023/06/12 08:56:51;;;;;;;8.07;3.40;;;;;;;;;;4987801;28;20044;-63
2023/06/12 08:59:17;;;;;;;8.30;3.70;;;;;;;;;;4989060;28;20037;-63
2023/06/12 09:01:45;;;;;;;8.05;3.53;;;;;;;;;;4988913;28;20174;-63
2023/06/12 09:04:28;;;;;;;6.95;3.63;;;;;;;;;;4988928;28;20048;-63
2023/06/12 09:07:01;;;;;;;8.23;3.67;;;;;;;;;;4989381;28;20090;-63
2023/06/12 09:09:35;;;;;;;9.02;3.92;;;;;;;;;;4988815;28;20865;-63
2023/06/12 09:12:02;;;;;;;7.32;3.58;;;;;;;;;;4988163;28;20041;-63
2023/06/12 09:14:28;;;;;;;8.82;3.90;;;;;;;;;;4991129;28;20061;-63
2023/06/12 09:16:54;;;;;;;12.43;3.70;;;;;;;;;;4991278;28;20501;-63
2023/06/12 09:19:20;;;;;;;9.43;4.10;;;;;;;;;;4991178;28;20064;-63
2023/06/12 09:21:50;;;;;;;7.20;3.80;;;;;;;;;;4991553;28;20215;-63
2023/06/12 09:24:16;;;;;;;7.13;3.60;;;;;;;;;;4989994;28;21250;-63
2023/06/12 09:26:42;;;;;;;7.22;3.92;;;;;;;;;;4990803;28;20033;-63
2023/06/12 09:29:08;;;;;;;6.53;3.50;;;;;;;;;;4989784;28;20037;-64
2023/06/12 09:31:34;;;;;;;8.30;4.18;;;;;;;;;;4991059;28;20112;-64
2023/06/12 09:34:01;;;;;;;12.35;4.22;;;;;;;;;;4991689;28;20049;-64
2023/06/12 09:36:28;;;;;;;8.43;3.97;;;;;;;;;;4991224;28;20714;-63
2023/06/12 09:38:54;;;;;;;8.60;3.75;;;;;;;;;;4990178;28;20136;-63
2023/06/12 09:41:25;;;;;;;8.02;3.92;;;;;;;;;;4991012;28;20068;-63
2023/06/12 09:43:53;;;;;;;8.90;3.53;;;;;;;;;;4988660;28;20030;-64
2023/06/12 09:46:24;;;;;;;9.95;3.97;;;;;;;;;;4988586;28;20026;-64
2023/06/12 09:48:55;;;;;;;8.85;4.50;;;;;;;;;;4988149;28;20033;-64
2023/06/12 09:51:23;;;;;;;7.05;3.22;;;;;;;;;;4989000;28;20108;-64
2023/06/12 09:53:51;;;;;;;6.72;3.35;;;;;;;;;;4988779;28;20547;-63
2023/06/12 09:56:17;;;;;;;12.18;3.90;;;;;;;;;;4984335;28;20144;-63
2023/06/12 09:58:47;;;;;;;9.77;3.63;;;;;;;;;;4982480;28;20033;-64
2023/06/12 10:01:14;;;;;;;7.03;3.70;;;;;;;;;;4985449;28;20030;-64
2023/06/12 10:03:42;;;;;;;6.97;3.88;;;;;;;;;;4984043;28;20866;-64
2023/06/12 10:06:11;;;;;;;8.13;3.63;;;;;;;;;;4984506;28;20044;-63
2023/06/12 10:08:37;;;;;;;8.18;3.75;;;;;;;;;;4984169;28;20026;-63
2023/06/12 10:11:04;;;;;;;9.98;4.32;;;;;;;;;;4984039;28;20029;-64
2023/06/12 10:13:31;;;;;;;11.27;3.85;;;;;;;;;;4984523;28;20041;-64
2023/06/12 10:15:57;;;;;;;8.45;4.10;;;;;;;;;;4984119;28;20124;-64
2023/06/12 10:18:24;;;;;;;6.88;3.65;;;;;;;;;;4983663;28;20041;-64
2023/06/12 10:20:50;;;;;;;8.07;4.40;;;;;;;;;;4984153;28;20108;-64
2023/06/12 10:23:16;;;;;;;6.30;3.30;;;;;;;;;;4983111;28;20029;-64
2023/06/12 10:25:44;;;;;;;7.95;3.60;;;;;;;;;;4983142;28;20729;-64
2023/06/12 10:28:11;;;;;;;7.80;4.20;;;;;;;;;;4983301;28;20038;-63
2023/06/12 10:30:37;;;;;;;8.23;3.60;;;;;;;;;;4983729;28;20061;-64
2023/06/12 10:33:13;;;;;;;7.72;3.83;;;;;;;;;;4983221;28;20034;-63
2023/06/12 10:35:39;;;;;;;7.97;4.10;;;;;;;;;;4983675;28;21397;-63
2023/06/12 10:38:05;;;;;;;9.02;4.50;;;;;;;;;;4983363;28;20037;-60
2023/06/12 10:40:31;;;;;;;6.45;4.05;;;;;;;;;;4983546;28;20030;-60
2023/06/12 10:43:02;;;;;;;8.38;3.53;;;;;;;;;;4982237;28;20037;-60
2023/06/12 10:45:29;;;;;;;8.02;3.90;;;;;;;;;;4983669;28;20126;-60
2023/06/12 10:48:08;;;;;;;8.93;3.90;;;;;;;;;;4984644;28;20038;-60
2023/06/12 10:50:34;;;;;;;10.38;3.80;;;;;;;;;;4982036;28;20028;-60
2023/06/12 10:53:01;;;;;;;10.52;3.92;;;;;;;;;;4983642;28;20022;-60
2023/06/12 10:55:27;;;;;;;6.90;3.58;;;;;;;;;;4983706;28;20026;-61
2023/06/12 10:57:53;;;;;;;7.97;3.33;;;;;;;;;;4982846;28;20139;-60
2023/06/12 11:00:21;;;;;;;9.05;3.88;;;;;;;;;;4983981;28;20034;-60
2023/06/12 11:02:47;;;;;;;9.68;4.13;;;;;;;;;;4981873;28;20846;-60
2023/06/12 11:05:18;;;;;;;7.43;3.42;;;;;;;;;;4982606;28;20069;-61
2023/06/12 11:07:44;;;;;;;7.53;4.22;;;;;;;;;;4982977;28;20030;-60
2023/06/12 11:10:11;;;;;;;6.63;3.83;;;;;;;;;;4983637;28;20087;-60
2023/06/12 11:12:45;;;;;;;9.48;3.97;;;;;;;;;;4982051;28;20609;-60
2023/06/12 11:15:11;;;;;;;7.32;4.53;;;;;;;;;;4981758;28;20199;-60
2023/06/12 11:17:37;;;;;;;7.43;4.13;;;;;;;;;;4982705;28;20037;-60
2023/06/12 11:20:05;;;;;;;8.40;4.10;;;;;;;;;;4981963;28;20040;-60
2023/06/12 11:22:31;;;;;;;7.38;4.93;;;;;;;;;;4982466;28;20492;-60
2023/06/12 11:25:01;;;;;;;7.82;4.65;;;;;;;;;;4982528;28;20496;-60
2023/06/12 11:27:27;;;;;;;8.32;4.70;;;;;;;;;;4982148;28;20680;-60
2023/06/12 11:29:53;;;;;;;8.38;4.90;;;;;;;;;;4982454;28;20025;-60
2023/06/12 11:32:20;;;;;;;7.70;4.68;;;;;;;;;;4981713;28;20848;-60
2023/06/12 11:34:46;;;;;;;9.73;4.38;;;;;;;;;;4981655;28;20137;-60
2023/06/12 11:37:16;;;;;;;8.70;4.93;;;;;;;;;;4981248;28;20045;-60
2023/06/12 11:39:43;;;;;;;9.50;5.07;;;;;;;;;;4983132;28;20034;-60
2023/06/12 11:42:11;;;;;;;8.02;4.70;;;;;;;;;;4982423;28;20045;-60
2023/06/12 11:44:37;;;;;;;8.45;4.85;;;;;;;;;;4982451;28;21826;-60
2023/06/12 11:47:05;;;;;;;7.97;4.65;;;;;;;;;;4980901;28;20041;-60
2023/06/12 11:49:32;;;;;;;9.05;4.43;;;;;;;;;;4982120;28;20034;-60
2023/06/12 11:51:58;;;;;;;7.65;5.55;;;;;;;;;;4982857;28;21012;-60
2023/06/12 11:54:24;;;;;;;7.38;3.90;;;;;;;;;;4982060;28;20042;-60
2023/06/12 11:56:51;;;;;;;6.40;4.32;;;;;;;;;;4980154;28;21677;-61
2023/06/12 11:59:18;;;;;;;6.28;4.13;;;;;;;;;;4979114;28;20033;-60
2023/06/12 12:01:45;;;;;;;7.28;4.18;;;;;;;;;;4979366;28;21727;-60
2023/06/12 12:04:15;;;;;;;7.13;4.32;;;;;;;;;;4981800;28;20034;-60
2023/06/12 12:06:47;;;;;;;6.90;4.75;;;;;;;;;;4980455;28;20029;-61
2023/06/12 12:09:14;;;;;;;9.32;5.00;;;;;;;;;;4980528;28;20125;-60
2023/06/12 12:11:40;;;;;;;7.43;4.50;;;;;;;;;;4980689;28;20033;-60
2023/06/12 12:14:07;;;;;;;7.25;4.43;;;;;;;;;;4986756;28;20064;-60
2023/06/12 12:16:43;;;;;;;10.20;4.30;;;;;;;;;;4987688;28;20030;-60
2023/06/12 12:19:25;;;;;;;9.70;4.50;;;;;;;;;;4988505;28;20061;-60
2023/06/12 12:21:51;;;;;;;8.13;5.07;;;;;;;;;;4988102;28;20048;-61
2023/06/12 12:24:17;;;;;;;7.88;4.55;;;;;;;;;;4988203;28;21254;-61
2023/06/12 12:26:53;;;;;;;9.20;5.07;;;;;;;;;;4989006;28;20094;-60
2023/06/12 12:29:21;;;;;;;9.27;5.07;;;;;;;;;;4988764;28;20029;-61
2023/06/12 12:31:47;;;;;;;7.50;5.00;;;;;;;;;;4988083;28;20065;-60
2023/06/12 12:34:13;;;;;;;11.45;5.25;;;;;;;;;;4988984;28;20167;-60
2023/06/12 12:36:40;;;;;;;8.02;5.22;;;;;;;;;;4989616;28;20048;-60
2023/06/12 12:39:07;;;;;;;9.48;4.93;;;;;;;;;;4989984;28;20053;-60
2023/06/12 12:41:34;;;;;;;7.90;4.80;;;;;;;;;;4988992;28;20034;-60
2023/06/12 12:44:00;;;;;;;7.57;4.75;;;;;;;;;;4990560;28;20128;-60
2023/06/12 12:46:27;;;;;;;6.78;4.43;;;;;;;;;;4997022;28;20026;-60
2023/06/12 12:48:53;;;;;;;10.70;5.10;;;;;;;;;;4999363;28;20159;-60
2023/06/12 12:51:19;;;;;;;6.75;4.72;;;;;;;;;;5000859;28;20033;-60
2023/06/12 12:53:46;;;;;;;9.38;4.95;;;;;;;;;;5015433;28;20037;-60
2023/06/12 12:56:15;;;;;;;9.57;5.07;;;;;;;;;;5000646;28;20048;-60
2023/06/12 12:58:42;;;;;;;7.22;4.32;;;;;;;;;;4999733;28;20038;-60
2023/06/12 13:01:09;;;;;;;9.65;5.18;;;;;;;;;;5000526;28;20129;-60
2023/06/12 13:03:39;;;;;;;6.65;4.55;;;;;;;;;;5000629;28;20034;-60
2023/06/12 13:06:06;;;;;;;7.20;4.85;;;;;;;;;;4998861;28;20036;-60
2023/06/12 13:08:34;;;;;;;9.18;5.32;;;;;;;;;;5000556;28;20044;-60
2023/06/12 13:11:00;;;;;;;9.32;5.30;;;;;;;;;;5000252;28;20034;-60
2023/06/12 13:13:27;;;;;;;7.85;4.85;;;;;;;;;;4999595;28;20056;-60
2023/06/12 13:15:53;;;;;;;9.50;5.65;;;;;;;;;;4999237;28;20116;-60
2023/06/12 13:18:19;;;;;;;7.75;4.75;;;;;;;;;;4998948;28;20132;-60
2023/06/12 13:20:45;;;;;;;9.18;4.85;;;;;;;;;;4996678;28;20050;-60
2023/06/12 13:23:11;;;;;;;8.90;5.28;;;;;;;;;;4999967;28;20072;-60
2023/06/12 13:25:40;;;;;;;7.05;4.90;;;;;;;;;;4997921;28;20128;-60
2023/06/12 13:28:06;;;;;;;10.40;5.72;;;;;;;;;;5000602;28;20103;-60
2023/06/12 13:30:32;;;;;;;9.80;5.15;;;;;;;;;;4997789;28;20085;-60
2023/06/12 13:32:59;;;;;;;8.18;5.28;;;;;;;;;;4999196;28;20034;-60
2023/06/12 13:35:25;;;;;;;9.38;5.63;;;;;;;;;;5000067;28;20103;-60
2023/06/12 13:37:51;;;;;;;9.50;5.30;;;;;;;;;;5000701;28;20029;-60
2023/06/12 13:40:17;;;;;;;8.57;5.72;;;;;;;;;;4999881;28;20117;-60
2023/06/12 13:42:44;;;;;;;8.45;5.72;;;;;;;;;;4999302;28;20076;-61
2023/06/12 13:45:11;;;;;;;9.15;5.15;;;;;;;;;;5000097;28;21443;-61
2023/06/12 13:47:38;;;;;;;11.88;5.25;;;;;;;;;;4998993;28;20120;-60
2023/06/12 13:50:10;;;;;;;8.85;5.88;;;;;;;;;;4998722;28;20163;-60
2023/06/12 13:52:37;;;;;;;11.80;6.60;;;;;;;;;;4999110;28;21029;-60
2023/06/12 13:55:03;;;;;;;9.85;5.63;;;;;;;;;;4998099;28;20049;-60
2023/06/12 13:57:30;;;;;;;10.25;5.50;;;;;;;;;;4998768;28;20088;-60
2023/06/12 13:59:56;;;;;;;13.70;5.75;;;;;;;;;;4998341;28;20037;-60
2023/06/12 14:02:22;;;;;;;10.02;5.10;;;;;;;;;;4998830;28;20038;-60
2023/06/12 14:04:49;;;;;;;7.95;6.10;;;;;;;;;;4999069;28;20029;-60
2023/06/12 14:07:15;;;;;;;8.93;5.60;;;;;;;;;;4996866;28;20045;-60
2023/06/12 14:09:41;;;;;;;9.15;5.50;;;;;;;;;;4997768;28;20025;-60
2023/06/12 14:12:08;;;;;;;9.23;5.65;;;;;;;;;;4997739;28;20025;-60
2023/06/12 14:14:34;;;;;;;14.48;7.40;;;;;;;;;;4997768;28;20053;-60
2023/06/12 14:17:00;;;;;;;8.40;5.40;;;;;;;;;;4997780;28;20034;-60
2023/06/12 14:19:27;;;;;;;8.60;5.63;;;;;;;;;;4998601;28;20125;-60
2023/06/12 14:21:53;;;;;;;8.70;5.20;;;;;;;;;;4998063;28;20136;-60
2023/06/12 14:24:19;;;;;;;8.80;5.70;;;;;;;;;;4995008;28;20532;-61
2023/06/12 14:26:45;;;;;;;10.32;5.72;;;;;;;;;;4998066;28;20080;-60
2023/06/12 14:29:11;;;;;;;9.68;6.13;;;;;;;;;;4998871;28;20060;-60
2023/06/12 14:31:37;;;;;;;8.32;5.30;;;;;;;;;;4999356;28;20060;-61
2023/06/12 14:34:03;;;;;;;19.38;5.65;;;;;;;;;;4999375;28;20037;-60
2023/06/12 14:36:29;;;;;;;7.25;5.75;;;;;;;;;;4999761;28;20043;-61
2023/06/12 14:38:55;;;;;;;11.05;5.65;;;;;;;;;;4998566;28;20133;-60
2023/06/12 14:41:21;;;;;;;8.73;6.18;;;;;;;;;;4998712;28;20037;-60